MMCS/CJS METAR and TAF weather

Enter ICAO airport designator
Station Type Date Time Source
MMCS METAR 2020/10/20 16:46 UTC NOAA

MMCS 201646Z 00000KT 10SM SKC 24/M06 A3005


Station Type Date Time Source
MMCS Decoded METAR 2020/10/20 16:46 UTC NOAA

Ciudad Juarez International , Mexico (MMCS) 31-38N 106-26W
Oct 20, 2020 - 12:46 PM EDT / 2020.10.20 1646 UTC
Wind: Calm:0
Visibility: 10 mile(s):0
Sky conditions: clear
Temperature: 75 F (24 C)
Dew Point: 21 F (-6 C)
Relative Humidity: 13%
Pressure (altimeter): 30.05 in. Hg (1017 hPa)
ob: MMCS 201646Z 00000KT 10SM SKC 24/M06 A3005
cycle: 17

Station Type Date Time Source
MMCS TAF 2020/10/20 18:58 UTC NOAA

TAF MMCS 201651Z 2018/2118 26012KT P6SM SKC
FM210400 20006KT P6SM SKC
FM211600 23012KT P6SM SKC

Example: see airport list